Flight Track Log - Related Links

Times and Time Zones

All times are in EDT time to prevent confusion due to time zone crossing. See the N449ND flight status page for this flight to view local times or setup timezone preferences in your user account.

Time Position Orientation Groundspeed Altitude Reporting Facility
EDT Latitude Longitude Course Direction KTS MPH feet Rate Location/Type
Mon 05:41:53 PM 27.4856 -80.3614 347° North 95 109 500  Level Miami Center
Mon 05:42:53 PM 27.4861 -80.3356 89° East 79 91 1,000 500 Climbing Miami Center
Mon 05:43:53 PM 27.4889 -80.3144 82° East 72 83 1,500 500 Climbing Miami Center
Mon 05:44:53 PM 27.4894 -80.2864 89° East 77 89 2,000 550 Climbing Miami Center
Mon 05:45:53 PM 27.5042 -80.2847 North 51 59 2,600 550 Climbing Miami Center
Mon 05:46:00 PM 27.4975 -80.3726 347° North  Level Estimated
Mon 05:46:53 PM 27.5161 -80.3061 302° West 55 63 3,100  Level Miami Center
Mon 05:47:00 PM 27.5004 -80.3734 347° North  Level FlightAware Approximate
Mon 05:47:53 PM 27.5261 -80.3275 298° West 91 105 3,000  Level Miami Center
Mon 05:48:53 PM 27.5339 -80.3533 289° West 97 112 3,100 50 Climbing Miami Center
Mon 05:49:53 PM 27.5414 -80.3817 287° West 92 106 3,100 -50 Level Miami Center
Mon 05:50:53 PM 27.5514 -80.4056 295° West 92 106 3,000  Descending Miami Center
Mon 05:51:53 PM 27.5633 -80.4317 297° West 92 106 3,100 50 Climbing Miami Center
Mon 05:52:53 PM 27.5647 -80.4575 273° West 92 106 3,100 -400 Level Miami Center
Mon 05:53:53 PM 27.5639 -80.4878 268° West 92 106 2,300 -500 Descending Miami Center
Mon 05:54:53 PM 27.5631 -80.5183 268° West 92 106 2,100 -100 Descending Miami Center
Mon 05:55:53 PM 27.5625 -80.5464 269° West 92 106 2,100  Level Miami Center
Mon 05:56:53 PM 27.5636 -80.5769 272° West 92 106 2,100  Level Miami Center
Mon 05:57:53 PM 27.5842 -80.5939 324° Northwest 86 99 2,100 -50 Level Miami Center
Mon 05:58:53 PM 27.6044 -80.6133 320° Northwest 92 106 2,000 -50 Descending Miami Center
Mon 05:59:53 PM 27.6292 -80.6328 325° Northwest 97 112 2,000  Level Miami Center
Mon 06:00:53 PM 27.6497 -80.6453 332° Northwest 97 112 2,000  Level Miami Center
Mon 06:01:53 PM 27.6750 -80.6344 21° North 86 99 2,000  Level Miami Center
Mon 06:02:53 PM 27.7003 -80.6233 21° North 93 107 2,000 -50 Level Miami Center
Mon 06:03:53 PM 27.7114 -80.5956 66° East 82 94 1,900 -200 Descending Miami Center
Mon 06:04:53 PM 27.7017 -80.5672 111° Southeast 87 100 1,600 -150 Descending Miami Center
Mon 06:05:53 PM 27.6942 -80.5364 105° East 94 108 1,600  Level Miami Center
Mon 06:06:53 PM 27.6822 -80.5128 120° Southeast 99 114 1,600 -450 Level Miami Center
Mon 06:07:53 PM 27.6747 -80.4842 106° East 94 108 700 -500 Descending Miami Center
Mon 06:08:53 PM 27.6669 -80.4583 109° East 89 102 600 -150 Descending Miami Center
Mon 06:09:53 PM 27.6592 -80.4369 112° Southeast 83 96 400 700 Descending Miami Center
Mon 06:10:53 PM 27.6533 -80.4156 107° East 73 84 2,000 500 Climbing Miami Center
Mon 06:11:53 PM 27.6475 -80.3944 107° East 68 78 1,400 -50 Descending Miami Center
Mon 06:12:53 PM 27.6461 -80.3708 94° East 74 85 1,900 550 Climbing Miami Center
Mon 06:13:53 PM 27.6406 -80.3425 102° East 81 93 2,500 450 Climbing Miami Center
Mon 06:14:53 PM 27.6392 -80.3144 93° East 87 100 2,800 350 Climbing Miami Center
Mon 06:15:53 PM 27.6269 -80.3022 138° Southeast 72 83 3,200 400 Climbing Miami Center
Mon 06:16:53 PM 27.6181 -80.3186 239° Southwest 50 58 3,600 400 Climbing Miami Center
Mon 06:17:53 PM 27.6136 -80.3394 256° West 74 85 4,000 200 Climbing Miami Center
Mon 06:18:53 PM 27.6067 -80.3628 251° West 80 92 4,000 50 Level Miami Center
Mon 06:19:53 PM 27.5978 -80.3858 246° West 85 98 4,100  Climbing Miami Center
Mon 06:20:53 PM 27.5867 -80.4067 239° Southwest 85 98 4,000 -50 Descending Miami Center
Mon 06:21:53 PM 27.5758 -80.4272 239° Southwest 90 104 4,000  Level Miami Center
Mon 06:22:53 PM 27.5669 -80.4528 249° West 90 104 4,000  Level Miami Center
Mon 06:23:53 PM 27.5600 -80.4783 253° West 90 104 4,000 -300 Level Miami Center
Mon 06:24:53 PM 27.5592 -80.5064 268° West 90 104 3,400 -500 Descending Miami Center
Mon 06:25:53 PM 27.5669 -80.5300 290° West 90 104 3,000 -150 Descending Miami Center
Mon 06:26:53 PM 27.5808 -80.5564 301° West 90 104 3,100 50 Climbing Miami Center
Mon 06:27:53 PM 27.5928 -80.5825 297° West 96 110 3,100  Level Miami Center
Mon 06:28:53 PM 27.6111 -80.6042 314° West 96 110 3,100  Level Miami Center
Mon 06:29:53 PM 27.6358 -80.6144 340° North 96 110 3,100 -50 Level Miami Center
Mon 06:30:53 PM 27.6628 -80.6222 346° North 96 110 3,000 -500 Descending Miami Center
Mon 06:31:53 PM 27.6961 -80.6211 North 101 116 2,100 -700 Descending Miami Center
Mon 06:32:53 PM 27.7194 -80.6078 27° Northeast 101 116 1,600 -250 Descending Miami Center
Mon 06:33:53 PM 27.7097 -80.5817 113° Southeast 69 79 1,600 -50 Level Miami Center
Mon 06:34:53 PM 27.7000 -80.5556 113° Southeast 95 109 1,500 -150 Descending Miami Center
Mon 06:35:53 PM 27.6903 -80.5269 111° Southeast 100 115 1,300 -150 Descending Miami Center
Mon 06:36:53 PM 27.6783 -80.4986 115° Southeast 94 108 1,200 -200 Descending Miami Center
Mon 06:37:53 PM 27.6708 -80.4747 110° East 89 102 900 900 Descending Miami Center
Mon 06:38:53 PM 27.6672 -80.4511 100° East 78 90 3,000 400 Climbing Miami Center
Mon 06:39:53 PM 27.6675 -80.4300 89° East 73 84 1,700 500 Descending Miami Center
Mon 06:40:53 PM 27.6661 -80.4044 94° East 73 84 4,000 550 Climbing Miami Center
Mon 06:41:53 PM 27.6628 -80.3736 97° East 90 104 2,800 -350 Descending Miami Center
Mon 06:42:53 PM 27.6794 -80.3742 358° North 44 51 3,300 550 Climbing Miami Center
Mon 06:43:53 PM 27.6789 -80.3978 268° West 56 64 3,900 400 Climbing Miami Center
Mon 06:44:53 PM 27.6783 -80.4189 268° West 79 91 4,100 100 Climbing Miami Center
Mon 06:45:53 PM 27.6775 -80.4492 268° West 85 98 4,100  Level Miami Center
Mon 06:46:53 PM 27.6792 -80.4728 275° West 85 98 4,100 -50 Level Miami Center
Mon 06:47:53 PM 27.6783 -80.5008 268° West 85 98 4,000  Descending Miami Center
Mon 06:48:53 PM 27.6800 -80.5244 275° West 85 98 4,100  Climbing Miami Center
Mon 06:49:53 PM 27.6944 -80.5247 359° North 59 68 4,000 -50 Descending Miami Center
Mon 06:50:53 PM 27.6806 -80.4939 117° Southeast 76 87 4,000  Level Miami Center
Mon 06:51:53 PM 27.6664 -80.4794 138° Southeast 81 93 4,000  Level Miami Center
Mon 06:52:53 PM 27.6761 -80.5056 293° West 70 81 4,000 50 Level Miami Center
Mon 06:53:53 PM 27.6925 -80.5200 322° Northwest 70 81 4,100  Climbing Miami Center
Mon 06:54:53 PM 27.6911 -80.4942 93° East 45 52 4,000 -50 Descending Miami Center
Mon 06:55:53 PM 27.6728 -80.4750 137° Southeast 82 94 4,000  Level Miami Center
Mon 06:56:53 PM 27.6597 -80.4931 231° Southwest 63 72 4,000  Level Miami Center
Mon 06:57:53 PM 27.6697 -80.5147 298° West 75 86 4,000 50 Level Miami Center
Mon 06:58:53 PM 27.6817 -80.5383 300° West 91 105 4,100  Climbing Miami Center
Mon 06:59:53 PM 27.6914 -80.5692 290° West 91 105 4,000 -350 Descending Miami Center
Mon 07:00:53 PM 27.6906 -80.5997 268° West 91 105 3,400 -650 Descending Miami Center
Mon 07:01:53 PM 27.6919 -80.6278 273° West 91 105 2,700 -650 Descending Miami Center
Mon 07:02:53 PM 27.6808 -80.6439 232° Southwest 80 92 2,100 -350 Descending Miami Center
Mon 07:03:53 PM 27.6669 -80.6200 123° Southeast 57 66 2,000  Descending Miami Center
Mon 07:04:53 PM 27.6617 -80.5822 99° East 90 104 2,100 50 Climbing Miami Center
Mon 07:05:53 PM 27.6500 -80.5514 113° Southeast 100 115 2,100 100 Level Miami Center
Mon 07:06:53 PM 27.6361 -80.5253 121° Southeast 105 121 2,300 -50 Climbing Miami Center
Mon 07:07:53 PM 27.6156 -80.5083 144° Southeast 105 121 2,000 -200 Descending Miami Center
Mon 07:08:53 PM 27.5972 -80.4864 133° Southeast 100 115 1,900 -50 Descending Miami Center
Mon 07:09:53 PM 27.5769 -80.4647 137° Southeast 100 115 1,900  Level Miami Center
Mon 07:10:53 PM 27.5589 -80.4431 133° Southeast 95 109 1,900 -250 Level Miami Center
Mon 07:11:53 PM 27.5444 -80.4264 134° Southeast 95 109 1,400 -600 Descending Miami Center
Mon 07:12:53 PM 27.5261 -80.4094 141° Southeast 90 104 700 -450 Descending Miami Center
Mon 07:13:53 PM 27.5119 -80.3903 130° Southeast 85 98 500 -100 Descending Miami Center
Mon 07:14:53 PM 27.4978 -80.3733 133° Southeast 80 92 500 300 Level Miami Center
Mon 07:15:53 PM 27.4792 -80.3728 178° South 75 86 1,100 600 Climbing Miami Center
Mon 07:16:53 PM 27.4603 -80.3769 191° South 74 85 1,700 550 Climbing Miami Center
Mon 07:17:53 PM 27.4372 -80.3761 178° South 79 91 2,200 650 Climbing Miami Center
Mon 07:18:53 PM 27.4344 -80.4019 263° West 63 72 3,000 450 Climbing Miami Center
Mon 07:19:53 PM 27.4444 -80.4256 296° West 71 82 3,100 50 Climbing Miami Center
Mon 07:20:53 PM 27.4519 -80.4517 288° West 91 105 3,100  Level Miami Center
Mon 07:21:53 PM 27.4619 -80.4753 296° West 91 105 3,100  Level Miami Center
Mon 07:22:53 PM 27.4717 -80.5014 293° West 91 105 3,100  Level Miami Center
Mon 07:23:53 PM 27.4814 -80.5297 291° West 91 105 3,100  Level Miami Center
Mon 07:24:53 PM 27.4911 -80.5581 291° West 91 105 3,100  Level Miami Center
Mon 07:25:53 PM 27.4989 -80.5864 287° West 91 105 3,100  Level Miami Center
Mon 07:26:53 PM 27.5003 -80.6122 273° West 91 105 3,100 -50 Level Miami Center
Mon 07:27:53 PM 27.4972 -80.6450 264° West 85 98 3,000 -50 Descending Miami Center
Mon 07:28:53 PM 27.4867 -80.6539 217° Southwest 69 79 3,000  Level Miami Center
Mon 07:29:53 PM 27.4956 -80.6261 70° East 55 63 3,000 50 Level Miami Center
Mon 07:30:53 PM 27.5006 -80.5958 79° East 91 105 3,100 50 Climbing Miami Center
Mon 07:31:53 PM 27.4864 -80.5836 143° Southeast 77 89 3,100 -50 Level Miami Center
Mon 07:32:53 PM 27.4772 -80.6139 251° West 64 74 3,000 -50 Descending Miami Center
Mon 07:33:53 PM 27.4786 -80.6372 274° West 77 89 3,000  Level Miami Center
Mon 07:34:53 PM 27.4981 -80.6169 43° Northeast 75 86 3,000 -200 Level Miami Center
Mon 07:35:53 PM 27.4989 -80.5864 88° East 83 96 2,600 -550 Descending Miami Center
Mon 07:36:53 PM 27.4997 -80.5514 88° East 100 115 1,900 -350 Descending Miami Center
Mon 07:37:53 PM 27.4983 -80.5186 93° East 105 121 1,900  Level Miami Center
Mon 07:38:53 PM 27.4992 -80.4881 88° East 105 121 1,900 -300 Level Miami Center
Mon 07:39:53 PM 27.4997 -80.4647 88° East 95 109 1,300 -450 Descending Miami Center
Mon 07:40:53 PM 27.4983 -80.4367 93° East 84 97 1,000 -400 Descending Miami Center
Mon 07:41:53 PM 27.4992 -80.4086 88° East 84 97 500 -300 Descending Miami Center
Mon 07:42:53 PM 27.5039 -80.3828 78° East 84 97 400 -200 Descending Miami Center
Mon 07:43:53 PM 27.5022 -80.3619 95° East 78 90 100 -300 Descending Miami Center

Login

Don't have an account? Register now (free) for customized features, flight alerts, and more!